Samary, Russia
Current Conditions -  °F | °C
As of 7:00 PM on Thursday 29 Jan 2015 (Local Time) from USPP Reporting Station
Clear Clear  
Wind Chill: -5°   Ceiling: Unl
Heat Index: 10°   Visibility: 6mi
Dew Point:   Wind: 13mph
Humidity: 67%   Direction: 210°SSW
Pressure: 30.06"   Gusts: NA
Location:  57.35°N, 58.22°E
Report Text: USPP 291400Z 21006MPS CAVOK M12/M17 Q1018 21420555 NOSIG RMKQFE753/1004
Loading
Personal Weather Stations






























Interactive Weather Map New forecast layout! Learn more

10-Day Weather Forecast

Advertisements
Track Severe Weather on mobile